Hauptseite
METAR-TAF:

METAR-TAF

Flughäfen :

Sälen Trysil, Schweden

Breite: 61-09-32N, Länge: 12-50-24E, Höhe: 490 m

Beobachtung

Neuester Wetterbericht von vor 36 Minuten, um 19:20 UTC
Wind 7 kt aus Südost
Temperatur 19°C
Luftfeuchtigkeit 49%
Luftdruck 1019 hPa
Sichtweite 10 km oder mehr

METAR: ESKS 231920Z AUTO 13007KT 9999 FEW058/// BKN081/// 19/08 Q1019

Zeit: 21:56 (19:56 UTC)


TAF: fehlend

Wetterbeobachtungen und Prognosen von mehr als 4000 Flughäfen (METAR und TAF Bericht).

Die verfügbaren Stationen werden durch gelbe und rote Markierungen auf der Karte dargestellt.

Führen Sie die Maus auf sie, um den Namen der Station zu sehen.

Darauf klicken, um die Beobachtung von Wetterbeobachtungen und Prognosen zu sehen.

Um die Karte zu ändern : klicken Sie auf den grünen Tasten mit einem schwarzen Kreuz Zum Vergrößern, auf den grünen Button mit einem Gedankenstrich zu verkleinern, oder auf die grünen Pfeile für benachbarte Karten.


METAR-TAF: